sensor_id;sensor_type;location;lat;lon;timestamp;P1;durP1;ratioP1;P2;durP2;ratioP2
65572;SDS011;52214;50.940;13.996;2022-11-03T00:01:48;11.20;;;4.97;;
65572;SDS011;52214;50.940;13.996;2022-11-03T00:04:18;10.70;;;4.82;;
65572;SDS011;52214;50.940;13.996;2022-11-03T00:06:46;12.90;;;4.77;;
65572;SDS011;52214;50.940;13.996;2022-11-03T00:09:14;13.82;;;5.03;;
65572;SDS011;52214;50.940;13.996;2022-11-03T00:11:41;12.80;;;5.38;;
65572;SDS011;52214;50.940;13.996;2022-11-03T00:14:08;13.35;;;5.28;;
65572;SDS011;52214;50.940;13.996;2022-11-03T00:16:35;12.02;;;5.40;;
65572;SDS011;52214;50.940;13.996;2022-11-03T00:19:04;15.97;;;5.43;;
65572;SDS011;52214;50.940;13.996;2022-11-03T00:21:31;14.77;;;5.38;;
65572;SDS011;52214;50.940;13.996;2022-11-03T00:23:56;15.40;;;5.85;;
65572;SDS011;52214;50.940;13.996;2022-11-03T00:26:26;13.70;;;5.05;;
65572;SDS011;52214;50.940;13.996;2022-11-03T00:28:54;14.88;;;5.45;;
65572;SDS011;52214;50.940;13.996;2022-11-03T00:31:22;12.40;;;5.03;;
65572;SDS011;52214;50.940;13.996;2022-11-03T00:33:50;14.70;;;5.65;;
65572;SDS011;52214;50.940;13.996;2022-11-03T00:36:17;14.70;;;5.47;;
65572;SDS011;52214;50.940;13.996;2022-11-03T00:38:44;14.67;;;5.33;;
65572;SDS011;52214;50.940;13.996;2022-11-03T00:41:11;15.98;;;6.38;;
65572;SDS011;52214;50.940;13.996;2022-11-03T00:43:37;10.98;;;5.13;;
65572;SDS011;52214;50.940;13.996;2022-11-03T00:46:03;14.05;;;5.18;;
65572;SDS011;52214;50.940;13.996;2022-11-03T00:48:30;14.60;;;5.47;;
65572;SDS011;52214;50.940;13.996;2022-11-03T00:53:32;13.48;;;5.20;;
65572;SDS011;52214;50.940;13.996;2022-11-03T00:56:02;14.07;;;5.32;;
65572;SDS011;52214;50.940;13.996;2022-11-03T00:58:28;13.90;;;5.10;;
65572;SDS011;52214;50.940;13.996;2022-11-03T01:01:00;14.45;;;5.10;;
65572;SDS011;52214;50.940;13.996;2022-11-03T01:03:32;13.85;;;5.57;;
65572;SDS011;52214;50.940;13.996;2022-11-03T01:06:00;14.27;;;5.30;;
65572;SDS011;52214;50.940;13.996;2022-11-03T01:08:45;12.23;;;5.30;;
65572;SDS011;52214;50.940;13.996;2022-11-03T01:11:11;12.50;;;5.45;;
65572;SDS011;52214;50.940;13.996;2022-11-03T01:14:00;12.90;;;5.28;;
65572;SDS011;52214;50.940;13.996;2022-11-03T01:16:27;15.53;;;5.67;;
65572;SDS011;52214;50.940;13.996;2022-11-03T01:18:53;16.98;;;5.70;;
65572;SDS011;52214;50.940;13.996;2022-11-03T01:21:19;12.70;;;6.20;;
65572;SDS011;52214;50.940;13.996;2022-11-03T01:23:45;16.02;;;6.20;;
65572;SDS011;52214;50.940;13.996;2022-11-03T01:26:11;12.57;;;5.50;;
65572;SDS011;52214;50.940;13.996;2022-11-03T01:28:38;16.80;;;6.03;;
65572;SDS011;52214;50.940;13.996;2022-11-03T01:31:12;13.80;;;6.25;;
65572;SDS011;52214;50.940;13.996;2022-11-03T01:33:40;15.52;;;5.72;;
65572;SDS011;52214;50.940;13.996;2022-11-03T01:36:07;14.13;;;6.35;;
65572;SDS011;52214;50.940;13.996;2022-11-03T01:38:34;12.17;;;5.57;;
65572;SDS011;52214;50.940;13.996;2022-11-03T01:41:01;14.18;;;6.05;;
65572;SDS011;52214;50.940;13.996;2022-11-03T01:43:28;15.50;;;6.05;;
65572;SDS011;52214;50.940;13.996;2022-11-03T01:48:46;16.08;;;6.15;;
65572;SDS011;52214;50.940;13.996;2022-11-03T01:51:24;16.93;;;6.33;;
65572;SDS011;52214;50.940;13.996;2022-11-03T01:53:54;12.23;;;5.47;;
65572;SDS011;52214;50.940;13.996;2022-11-03T01:56:22;14.80;;;6.03;;
65572;SDS011;52214;50.940;13.996;2022-11-03T01:58:49;14.45;;;6.07;;
65572;SDS011;52214;50.940;13.996;2022-11-03T02:01:17;12.07;;;5.60;;
65572;SDS011;52214;50.940;13.996;2022-11-03T02:03:44;18.63;;;6.60;;
65572;SDS011;52214;50.940;13.996;2022-11-03T02:06:16;14.40;;;6.10;;
65572;SDS011;52214;50.940;13.996;2022-11-03T02:08:51;18.80;;;6.50;;
65572;SDS011;52214;50.940;13.996;2022-11-03T02:11:20;14.90;;;7.00;;
65572;SDS011;52214;50.940;13.996;2022-11-03T02:14:09;16.60;;;6.20;;
65572;SDS011;52214;50.940;13.996;2022-11-03T02:16:35;15.95;;;6.80;;
65572;SDS011;52214;50.940;13.996;2022-11-03T02:19:01;14.53;;;6.33;;
65572;SDS011;52214;50.940;13.996;2022-11-03T02:21:33;14.40;;;6.25;;
65572;SDS011;52214;50.940;13.996;2022-11-03T02:26:47;11.60;;;5.40;;
65572;SDS011;52214;50.940;13.996;2022-11-03T02:29:18;10.52;;;4.93;;
65572;SDS011;52214;50.940;13.996;2022-11-03T02:31:50;14.03;;;5.43;;
65572;SDS011;52214;50.940;13.996;2022-11-03T02:37:27;12.32;;;4.57;;
65572;SDS011;52214;50.940;13.996;2022-11-03T02:40:00;14.00;;;4.97;;
65572;SDS011;52214;50.940;13.996;2022-11-03T02:42:38;12.13;;;5.07;;
65572;SDS011;52214;50.940;13.996;2022-11-03T02:45:07;12.75;;;5.13;;
65572;SDS011;52214;50.940;13.996;2022-11-03T02:47:35;18.13;;;5.88;;
65572;SDS011;52214;50.940;13.996;2022-11-03T02:50:04;16.10;;;5.70;;
65572;SDS011;52214;50.940;13.996;2022-11-03T02:52:39;13.77;;;5.20;;
65572;SDS011;52214;50.940;13.996;2022-11-03T02:55:52;15.57;;;5.90;;
65572;SDS011;52214;50.940;13.996;2022-11-03T02:58:06;13.02;;;5.05;;
65572;SDS011;52214;50.940;13.996;2022-11-03T03:03:24;16.27;;;5.88;;
65572;SDS011;52214;50.940;13.996;2022-11-03T03:05:55;18.90;;;6.10;;
65572;SDS011;52214;50.940;13.996;2022-11-03T03:08:26;12.82;;;5.60;;
65572;SDS011;52214;50.940;13.996;2022-11-03T03:10:54;13.25;;;6.40;;
65572;SDS011;52214;50.940;13.996;2022-11-03T03:13:24;13.10;;;6.20;;
65572;SDS011;52214;50.940;13.996;2022-11-03T03:21:20;17.25;;;7.53;;
65572;SDS011;52214;50.940;13.996;2022-11-03T03:24:08;15.57;;;6.60;;
65572;SDS011;52214;50.940;13.996;2022-11-03T03:26:46;16.73;;;6.82;;
65572;SDS011;52214;50.940;13.996;2022-11-03T03:31:42;16.80;;;5.20;;
65572;SDS011;52214;50.940;13.996;2022-11-03T03:34:12;14.18;;;5.75;;
65572;SDS011;52214;50.940;13.996;2022-11-03T03:36:41;13.07;;;5.78;;
65572;SDS011;52214;50.940;13.996;2022-11-03T03:39:10;17.50;;;6.70;;
65572;SDS011;52214;50.940;13.996;2022-11-03T03:41:38;13.65;;;5.85;;
65572;SDS011;52214;50.940;13.996;2022-11-03T03:44:05;16.00;;;6.37;;
65572;SDS011;52214;50.940;13.996;2022-11-03T03:46:36;15.30;;;6.13;;
65572;SDS011;52214;50.940;13.996;2022-11-03T03:49:06;17.13;;;6.20;;
65572;SDS011;52214;50.940;13.996;2022-11-03T03:51:32;15.70;;;6.53;;
65572;SDS011;52214;50.940;13.996;2022-11-03T03:53:59;14.68;;;6.25;;
65572;SDS011;52214;50.940;13.996;2022-11-03T03:56:35;13.33;;;6.33;;
65572;SDS011;52214;50.940;13.996;2022-11-03T03:59:15;15.23;;;6.50;;
65572;SDS011;52214;50.940;13.996;2022-11-03T04:01:40;12.43;;;6.07;;
65572;SDS011;52214;50.940;13.996;2022-11-03T04:04:06;21.63;;;7.17;;
65572;SDS011;52214;50.940;13.996;2022-11-03T04:06:31;19.58;;;8.07;;
65572;SDS011;52214;50.940;13.996;2022-11-03T04:08:57;31.70;;;7.03;;
65572;SDS011;52214;50.940;13.996;2022-11-03T04:11:23;76.03;;;8.93;;
65572;SDS011;52214;50.940;13.996;2022-11-03T04:14:08;59.15;;;7.78;;
65572;SDS011;52214;50.940;13.996;2022-11-03T04:16:52;48.78;;;7.00;;
65572;SDS011;52214;50.940;13.996;2022-11-03T04:19:36;54.58;;;7.95;;
65572;SDS011;52214;50.940;13.996;2022-11-03T04:22:21;40.50;;;8.03;;
65572;SDS011;52214;50.940;13.996;2022-11-03T04:24:47;33.38;;;7.72;;
65572;SDS011;52214;50.940;13.996;2022-11-03T04:29:58;34.40;;;7.70;;
65572;SDS011;52214;50.940;13.996;2022-11-03T04:32:34;38.05;;;8.18;;
65572;SDS011;52214;50.940;13.996;2022-11-03T04:35:00;29.00;;;8.33;;
65572;SDS011;52214;50.940;13.996;2022-11-03T04:37:34;34.03;;;8.98;;
65572;SDS011;52214;50.940;13.996;2022-11-03T04:39:59;24.67;;;8.38;;
65572;SDS011;52214;50.940;13.996;2022-11-03T04:42:25;23.70;;;8.07;;
65572;SDS011;52214;50.940;13.996;2022-11-03T04:44:54;20.52;;;8.20;;
65572;SDS011;52214;50.940;13.996;2022-11-03T04:47:21;18.23;;;7.88;;
65572;SDS011;52214;50.940;13.996;2022-11-03T04:49:47;21.77;;;8.67;;
65572;SDS011;52214;50.940;13.996;2022-11-03T04:52:17;22.38;;;8.13;;
65572;SDS011;52214;50.940;13.996;2022-11-03T04:54:44;22.33;;;7.90;;
65572;SDS011;52214;50.940;13.996;2022-11-03T04:57:13;20.48;;;8.35;;
65572;SDS011;52214;50.940;13.996;2022-11-03T04:59:40;19.67;;;8.45;;
65572;SDS011;52214;50.940;13.996;2022-11-03T05:02:10;21.35;;;8.77;;
65572;SDS011;52214;50.940;13.996;2022-11-03T05:04:39;21.85;;;8.63;;
65572;SDS011;52214;50.940;13.996;2022-11-03T05:07:22;18.63;;;9.13;;
65572;SDS011;52214;50.940;13.996;2022-11-03T05:09:53;25.10;;;9.32;;
65572;SDS011;52214;50.940;13.996;2022-11-03T05:12:19;19.63;;;8.27;;
65572;SDS011;52214;50.940;13.996;2022-11-03T05:14:45;22.17;;;8.57;;
65572;SDS011;52214;50.940;13.996;2022-11-03T05:17:21;26.13;;;9.00;;
65572;SDS011;52214;50.940;13.996;2022-11-03T05:19:50;22.60;;;9.48;;
65572;SDS011;52214;50.940;13.996;2022-11-03T05:22:19;22.98;;;9.43;;
65572;SDS011;52214;50.940;13.996;2022-11-03T05:24:49;20.30;;;7.97;;
65572;SDS011;52214;50.940;13.996;2022-11-03T05:27:20;19.80;;;8.25;;
65572;SDS011;52214;50.940;13.996;2022-11-03T05:29:48;19.40;;;8.13;;
65572;SDS011;52214;50.940;13.996;2022-11-03T05:32:20;18.38;;;8.77;;
65572;SDS011;52214;50.940;13.996;2022-11-03T05:34:49;29.70;;;9.00;;
65572;SDS011;52214;50.940;13.996;2022-11-03T05:37:34;23.80;;;8.23;;
65572;SDS011;52214;50.940;13.996;2022-11-03T05:40:05;19.23;;;7.70;;
65572;SDS011;52214;50.940;13.996;2022-11-03T05:42:45;17.90;;;7.75;;
65572;SDS011;52214;50.940;13.996;2022-11-03T05:45:23;20.13;;;8.63;;
65572;SDS011;52214;50.940;13.996;2022-11-03T05:47:55;22.75;;;8.30;;
65572;SDS011;52214;50.940;13.996;2022-11-03T05:50:22;19.47;;;8.03;;
65572;SDS011;52214;50.940;13.996;2022-11-03T05:52:57;19.73;;;8.77;;
65572;SDS011;52214;50.940;13.996;2022-11-03T05:55:32;21.90;;;8.38;;
65572;SDS011;52214;50.940;13.996;2022-11-03T05:58:03;17.17;;;8.48;;
65572;SDS011;52214;50.940;13.996;2022-11-03T06:00:39;17.65;;;7.93;;
65572;SDS011;52214;50.940;13.996;2022-11-03T06:03:08;17.97;;;7.87;;
65572;SDS011;52214;50.940;13.996;2022-11-03T06:05:38;20.35;;;7.53;;
65572;SDS011;52214;50.940;13.996;2022-11-03T06:08:11;18.83;;;7.82;;
65572;SDS011;52214;50.940;13.996;2022-11-03T06:10:41;17.75;;;7.20;;
65572;SDS011;52214;50.940;13.996;2022-11-03T06:13:13;18.45;;;8.10;;
65572;SDS011;52214;50.940;13.996;2022-11-03T06:15:43;16.23;;;7.17;;
65572;SDS011;52214;50.940;13.996;2022-11-03T06:18:15;17.02;;;7.10;;
65572;SDS011;52214;50.940;13.996;2022-11-03T06:20:47;17.90;;;7.93;;
65572;SDS011;52214;50.940;13.996;2022-11-03T06:23:26;22.42;;;8.27;;
65572;SDS011;52214;50.940;13.996;2022-11-03T06:25:52;20.67;;;7.70;;
65572;SDS011;52214;50.940;13.996;2022-11-03T06:28:23;21.02;;;7.75;;
65572;SDS011;52214;50.940;13.996;2022-11-03T06:30:50;20.40;;;7.50;;
65572;SDS011;52214;50.940;13.996;2022-11-03T06:35:51;19.90;;;7.93;;
65572;SDS011;52214;50.940;13.996;2022-11-03T06:38:49;19.38;;;6.90;;
65572;SDS011;52214;50.940;13.996;2022-11-03T06:41:22;20.05;;;8.25;;
65572;SDS011;52214;50.940;13.996;2022-11-03T06:43:49;19.02;;;8.50;;
65572;SDS011;52214;50.940;13.996;2022-11-03T06:46:25;20.55;;;8.23;;
65572;SDS011;52214;50.940;13.996;2022-11-03T06:48:54;16.93;;;7.67;;
65572;SDS011;52214;50.940;13.996;2022-11-03T06:51:23;21.58;;;8.07;;
65572;SDS011;52214;50.940;13.996;2022-11-03T06:53:51;17.20;;;8.68;;
65572;SDS011;52214;50.940;13.996;2022-11-03T06:56:21;19.45;;;8.48;;
65572;SDS011;52214;50.940;13.996;2022-11-03T06:58:49;19.55;;;7.72;;
65572;SDS011;52214;50.940;13.996;2022-11-03T07:01:21;20.93;;;8.30;;
65572;SDS011;52214;50.940;13.996;2022-11-03T07:06:46;21.45;;;8.32;;
65572;SDS011;52214;50.940;13.996;2022-11-03T07:09:17;19.00;;;8.05;;
65572;SDS011;52214;50.940;13.996;2022-11-03T07:11:52;21.67;;;8.43;;
65572;SDS011;52214;50.940;13.996;2022-11-03T07:14:24;17.83;;;7.93;;
65572;SDS011;52214;50.940;13.996;2022-11-03T07:16:56;19.80;;;7.75;;
65572;SDS011;52214;50.940;13.996;2022-11-03T07:19:26;18.17;;;8.57;;
65572;SDS011;52214;50.940;13.996;2022-11-03T07:21:59;24.27;;;8.77;;
65572;SDS011;52214;50.940;13.996;2022-11-03T07:24:30;21.97;;;7.90;;
65572;SDS011;52214;50.940;13.996;2022-11-03T07:27:12;22.42;;;8.77;;
65572;SDS011;52214;50.940;13.996;2022-11-03T07:29:44;24.77;;;8.68;;
65572;SDS011;52214;50.940;13.996;2022-11-03T07:32:15;19.65;;;9.07;;
65572;SDS011;52214;50.940;13.996;2022-11-03T07:34:44;22.23;;;8.95;;
65572;SDS011;52214;50.940;13.996;2022-11-03T07:37:18;20.40;;;9.43;;
65572;SDS011;52214;50.940;13.996;2022-11-03T07:39:45;20.35;;;8.20;;
65572;SDS011;52214;50.940;13.996;2022-11-03T07:42:17;20.30;;;8.30;;
65572;SDS011;52214;50.940;13.996;2022-11-03T07:44:45;18.88;;;8.82;;
65572;SDS011;52214;50.940;13.996;2022-11-03T07:47:12;19.90;;;8.50;;
65572;SDS011;52214;50.940;13.996;2022-11-03T07:49:40;18.17;;;8.20;;
65572;SDS011;52214;50.940;13.996;2022-11-03T07:52:11;18.65;;;8.82;;
65572;SDS011;52214;50.940;13.996;2022-11-03T07:54:40;20.58;;;8.70;;
65572;SDS011;52214;50.940;13.996;2022-11-03T07:59:41;20.08;;;8.98;;
65572;SDS011;52214;50.940;13.996;2022-11-03T08:04:56;18.75;;;7.93;;
65572;SDS011;52214;50.940;13.996;2022-11-03T08:07:22;18.15;;;7.65;;
65572;SDS011;52214;50.940;13.996;2022-11-03T08:09:48;18.03;;;6.97;;
65572;SDS011;52214;50.940;13.996;2022-11-03T08:12:14;17.58;;;7.57;;
65572;SDS011;52214;50.940;13.996;2022-11-03T08:14:40;19.20;;;6.87;;
65572;SDS011;52214;50.940;13.996;2022-11-03T08:17:05;18.45;;;6.90;;
65572;SDS011;52214;50.940;13.996;2022-11-03T08:19:31;22.92;;;8.10;;
65572;SDS011;52214;50.940;13.996;2022-11-03T08:21:57;15.88;;;7.53;;
65572;SDS011;52214;50.940;13.996;2022-11-03T08:24:22;18.13;;;7.30;;
65572;SDS011;52214;50.940;13.996;2022-11-03T08:26:48;15.33;;;7.03;;
65572;SDS011;52214;50.940;13.996;2022-11-03T08:29:14;15.55;;;6.50;;
65572;SDS011;52214;50.940;13.996;2022-11-03T08:31:42;17.07;;;7.27;;
65572;SDS011;52214;50.940;13.996;2022-11-03T08:34:08;14.02;;;6.32;;
65572;SDS011;52214;50.940;13.996;2022-11-03T08:36:34;13.82;;;5.90;;
65572;SDS011;52214;50.940;13.996;2022-11-03T08:38:59;11.65;;;5.32;;
65572;SDS011;52214;50.940;13.996;2022-11-03T08:41:25;11.15;;;5.10;;
65572;SDS011;52214;50.940;13.996;2022-11-03T08:43:50;13.40;;;5.17;;
65572;SDS011;52214;50.940;13.996;2022-11-03T08:46:16;14.32;;;5.30;;
65572;SDS011;52214;50.940;13.996;2022-11-03T08:48:41;12.93;;;5.07;;
65572;SDS011;52214;50.940;13.996;2022-11-03T08:51:07;13.15;;;5.38;;
65572;SDS011;52214;50.940;13.996;2022-11-03T08:53:34;12.38;;;5.53;;
65572;SDS011;52214;50.940;13.996;2022-11-03T08:55:59;10.60;;;4.45;;
65572;SDS011;52214;50.940;13.996;2022-11-03T08:58:25;11.03;;;4.37;;
65572;SDS011;52214;50.940;13.996;2022-11-03T09:00:51;10.57;;;4.07;;
65572;SDS011;52214;50.940;13.996;2022-11-03T09:03:17;8.70;;;3.87;;
65572;SDS011;52214;50.940;13.996;2022-11-03T09:05:42;10.53;;;3.50;;
65572;SDS011;52214;50.940;13.996;2022-11-03T09:08:08;8.98;;;3.15;;
65572;SDS011;52214;50.940;13.996;2022-11-03T09:10:34;9.70;;;3.70;;
65572;SDS011;52214;50.940;13.996;2022-11-03T09:12:59;9.50;;;2.97;;
65572;SDS011;52214;50.940;13.996;2022-11-03T09:15:25;6.57;;;2.77;;
65572;SDS011;52214;50.940;13.996;2022-11-03T09:17:50;11.67;;;3.10;;
65572;SDS011;52214;50.940;13.996;2022-11-03T09:20:16;11.57;;;3.25;;
65572;SDS011;52214;50.940;13.996;2022-11-03T09:22:42;10.63;;;3.93;;
65572;SDS011;52214;50.940;13.996;2022-11-03T09:25:08;10.70;;;3.63;;
65572;SDS011;52214;50.940;13.996;2022-11-03T09:27:33;8.57;;;3.42;;
65572;SDS011;52214;50.940;13.996;2022-11-03T09:29:59;10.17;;;3.83;;
65572;SDS011;52214;50.940;13.996;2022-11-03T09:32:25;9.20;;;3.70;;
65572;SDS011;52214;50.940;13.996;2022-11-03T09:34:50;10.30;;;3.05;;
65572;SDS011;52214;50.940;13.996;2022-11-03T09:37:16;10.30;;;3.30;;
65572;SDS011;52214;50.940;13.996;2022-11-03T09:39:42;8.40;;;3.25;;
65572;SDS011;52214;50.940;13.996;2022-11-03T09:42:07;9.07;;;3.30;;
65572;SDS011;52214;50.940;13.996;2022-11-03T09:44:35;9.30;;;2.95;;
65572;SDS011;52214;50.940;13.996;2022-11-03T09:47:02;9.53;;;3.00;;
65572;SDS011;52214;50.940;13.996;2022-11-03T09:49:32;9.43;;;3.20;;
65572;SDS011;52214;50.940;13.996;2022-11-03T09:51:59;9.65;;;3.17;;
65572;SDS011;52214;50.940;13.996;2022-11-03T09:54:27;6.75;;;3.00;;
65572;SDS011;52214;50.940;13.996;2022-11-03T09:56:55;8.15;;;3.13;;
65572;SDS011;52214;50.940;13.996;2022-11-03T09:59:23;6.47;;;2.93;;
65572;SDS011;52214;50.940;13.996;2022-11-03T10:01:50;10.18;;;2.85;;
65572;SDS011;52214;50.940;13.996;2022-11-03T10:04:24;9.52;;;3.03;;
65572;SDS011;52214;50.940;13.996;2022-11-03T10:06:55;8.63;;;2.50;;
65572;SDS011;52214;50.940;13.996;2022-11-03T10:09:22;7.90;;;2.05;;
65572;SDS011;52214;50.940;13.996;2022-11-03T10:11:49;6.83;;;2.00;;
65572;SDS011;52214;50.940;13.996;2022-11-03T10:14:16;7.60;;;2.28;;
65572;SDS011;52214;50.940;13.996;2022-11-03T10:16:44;6.75;;;2.50;;
65572;SDS011;52214;50.940;13.996;2022-11-03T10:19:16;8.18;;;2.17;;
65572;SDS011;52214;50.940;13.996;2022-11-03T10:21:42;8.93;;;2.58;;
65572;SDS011;52214;50.940;13.996;2022-11-03T10:24:11;9.33;;;2.47;;
65572;SDS011;52214;50.940;13.996;2022-11-03T10:26:47;10.35;;;2.42;;
65572;SDS011;52214;50.940;13.996;2022-11-03T10:31:47;9.15;;;2.45;;
65572;SDS011;52214;50.940;13.996;2022-11-03T10:34:25;6.88;;;2.42;;
65572;SDS011;52214;50.940;13.996;2022-11-03T10:39:42;8.70;;;2.30;;
65572;SDS011;52214;50.940;13.996;2022-11-03T10:44:53;6.70;;;1.90;;
65572;SDS011;52214;50.940;13.996;2022-11-03T10:47:24;6.20;;;2.15;;
65572;SDS011;52214;50.940;13.996;2022-11-03T10:50:33;5.60;;;2.20;;
65572;SDS011;52214;50.940;13.996;2022-11-03T10:52:52;5.93;;;1.92;;
65572;SDS011;52214;50.940;13.996;2022-11-03T10:55:19;5.57;;;1.90;;
65572;SDS011;52214;50.940;13.996;2022-11-03T10:57:46;5.72;;;2.00;;
65572;SDS011;52214;50.940;13.996;2022-11-03T11:00:17;7.10;;;1.98;;
65572;SDS011;52214;50.940;13.996;2022-11-03T11:02:44;6.43;;;1.90;;
65572;SDS011;52214;50.940;13.996;2022-11-03T11:05:29;8.00;;;1.90;;
65572;SDS011;52214;50.940;13.996;2022-11-03T11:07:54;5.38;;;2.60;;
65572;SDS011;52214;50.940;13.996;2022-11-03T11:10:24;6.95;;;2.67;;
65572;SDS011;52214;50.940;13.996;2022-11-03T11:13:01;10.45;;;2.88;;
65572;SDS011;52214;50.940;13.996;2022-11-03T11:15:50;7.88;;;3.15;;
65572;SDS011;52214;50.940;13.996;2022-11-03T11:20:52;6.32;;;2.83;;
65572;SDS011;52214;50.940;13.996;2022-11-03T11:26:05;9.63;;;2.80;;
65572;SDS011;52214;50.940;13.996;2022-11-03T11:28:31;8.77;;;2.80;;
65572;SDS011;52214;50.940;13.996;2022-11-03T11:30:57;7.37;;;2.60;;
65572;SDS011;52214;50.940;13.996;2022-11-03T11:33:24;8.70;;;3.10;;
65572;SDS011;52214;50.940;13.996;2022-11-03T11:36:00;7.50;;;2.97;;
65572;SDS011;52214;50.940;13.996;2022-11-03T11:38:44;8.38;;;2.80;;
65572;SDS011;52214;50.940;13.996;2022-11-03T11:41:12;7.03;;;2.83;;
65572;SDS011;52214;50.940;13.996;2022-11-03T11:43:38;8.70;;;2.72;;
65572;SDS011;52214;50.940;13.996;2022-11-03T11:51:21;9.30;;;2.83;;
65572;SDS011;52214;50.940;13.996;2022-11-03T11:53:48;8.57;;;3.03;;
65572;SDS011;52214;50.940;13.996;2022-11-03T11:56:15;8.18;;;2.78;;
65572;SDS011;52214;50.940;13.996;2022-11-03T12:04:00;8.57;;;3.10;;
65572;SDS011;52214;50.940;13.996;2022-11-03T12:06:34;8.60;;;3.10;;
65572;SDS011;52214;50.940;13.996;2022-11-03T12:09:13;7.80;;;3.13;;
65572;SDS011;52214;50.940;13.996;2022-11-03T12:14:21;7.28;;;2.83;;
65572;SDS011;52214;50.940;13.996;2022-11-03T12:16:50;6.47;;;2.90;;
65572;SDS011;52214;50.940;13.996;2022-11-03T12:22:09;8.07;;;3.30;;
65572;SDS011;52214;50.940;13.996;2022-11-03T12:27:50;6.50;;;3.20;;
65572;SDS011;52214;50.940;13.996;2022-11-03T12:30:17;8.80;;;3.30;;
65572;SDS011;52214;50.940;13.996;2022-11-03T12:32:43;9.60;;;3.17;;
65572;SDS011;52214;50.940;13.996;2022-11-03T12:35:10;6.68;;;2.78;;
65572;SDS011;52214;50.940;13.996;2022-11-03T12:37:37;7.50;;;2.90;;
65572;SDS011;52214;50.940;13.996;2022-11-03T12:40:03;7.97;;;3.08;;
65572;SDS011;52214;50.940;13.996;2022-11-03T12:42:30;7.95;;;3.15;;
65572;SDS011;52214;50.940;13.996;2022-11-03T12:44:55;6.20;;;3.10;;
65572;SDS011;52214;50.940;13.996;2022-11-03T12:47:21;8.55;;;3.00;;
65572;SDS011;52214;50.940;13.996;2022-11-03T12:49:47;7.40;;;3.20;;
65572;SDS011;52214;50.940;13.996;2022-11-03T12:52:13;7.82;;;3.20;;
65572;SDS011;52214;50.940;13.996;2022-11-03T12:54:39;8.15;;;2.83;;
65572;SDS011;52214;50.940;13.996;2022-11-03T12:57:06;8.02;;;3.03;;
65572;SDS011;52214;50.940;13.996;2022-11-03T12:59:32;6.93;;;2.80;;
65572;SDS011;52214;50.940;13.996;2022-11-03T13:01:57;9.25;;;2.92;;
65572;SDS011;52214;50.940;13.996;2022-11-03T13:04:23;8.67;;;3.20;;
65572;SDS011;52214;50.940;13.996;2022-11-03T13:06:48;8.90;;;3.37;;
65572;SDS011;52214;50.940;13.996;2022-11-03T13:09:14;7.65;;;3.50;;
65572;SDS011;52214;50.940;13.996;2022-11-03T13:11:39;7.63;;;3.03;;
65572;SDS011;52214;50.940;13.996;2022-11-03T13:14:24;7.95;;;2.72;;
65572;SDS011;52214;50.940;13.996;2022-11-03T13:16:50;7.55;;;3.20;;
65572;SDS011;52214;50.940;13.996;2022-11-03T13:19:16;8.13;;;3.50;;
65572;SDS011;52214;50.940;13.996;2022-11-03T13:21:42;9.43;;;3.67;;
65572;SDS011;52214;50.940;13.996;2022-11-03T13:24:07;10.20;;;4.55;;
65572;SDS011;52214;50.940;13.996;2022-11-03T13:26:33;8.03;;;3.50;;
65572;SDS011;52214;50.940;13.996;2022-11-03T13:28:58;6.85;;;3.20;;
65572;SDS011;52214;50.940;13.996;2022-11-03T13:31:24;7.78;;;3.30;;
65572;SDS011;52214;50.940;13.996;2022-11-03T13:33:49;8.53;;;3.20;;
65572;SDS011;52214;50.940;13.996;2022-11-03T13:36:16;8.63;;;4.00;;
65572;SDS011;52214;50.940;13.996;2022-11-03T13:38:41;12.67;;;4.50;;
65572;SDS011;52214;50.940;13.996;2022-11-03T13:41:07;10.10;;;3.50;;
65572;SDS011;52214;50.940;13.996;2022-11-03T13:43:33;8.97;;;3.53;;
65572;SDS011;52214;50.940;13.996;2022-11-03T13:45:58;8.53;;;3.63;;
65572;SDS011;52214;50.940;13.996;2022-11-03T13:48:26;8.43;;;3.50;;
65572;SDS011;52214;50.940;13.996;2022-11-03T13:50:53;8.88;;;3.35;;
65572;SDS011;52214;50.940;13.996;2022-11-03T13:53:20;7.90;;;3.03;;
65572;SDS011;52214;50.940;13.996;2022-11-03T13:55:45;9.47;;;3.33;;
65572;SDS011;52214;50.940;13.996;2022-11-03T13:58:11;7.43;;;3.77;;
65572;SDS011;52214;50.940;13.996;2022-11-03T14:00:36;9.07;;;3.60;;
65572;SDS011;52214;50.940;13.996;2022-11-03T14:03:10;8.45;;;3.25;;
65572;SDS011;52214;50.940;13.996;2022-11-03T14:05:37;8.45;;;3.30;;
65572;SDS011;52214;50.940;13.996;2022-11-03T14:08:03;8.77;;;3.50;;
65572;SDS011;52214;50.940;13.996;2022-11-03T14:10:29;8.48;;;3.53;;
65572;SDS011;52214;50.940;13.996;2022-11-03T14:12:54;9.80;;;3.65;;
65572;SDS011;52214;50.940;13.996;2022-11-03T14:15:20;9.63;;;3.23;;
65572;SDS011;52214;50.940;13.996;2022-11-03T14:17:45;8.63;;;3.20;;
65572;SDS011;52214;50.940;13.996;2022-11-03T14:20:11;9.35;;;3.25;;
65572;SDS011;52214;50.940;13.996;2022-11-03T14:22:37;6.10;;;2.88;;
65572;SDS011;52214;50.940;13.996;2022-11-03T14:25:04;6.63;;;3.40;;
65572;SDS011;52214;50.940;13.996;2022-11-03T14:27:30;7.10;;;2.90;;
65572;SDS011;52214;50.940;13.996;2022-11-03T14:29:56;7.57;;;3.00;;
65572;SDS011;52214;50.940;13.996;2022-11-03T14:32:22;8.45;;;3.20;;
65572;SDS011;52214;50.940;13.996;2022-11-03T14:34:47;9.75;;;3.45;;
65572;SDS011;52214;50.940;13.996;2022-11-03T14:37:13;8.43;;;3.43;;
65572;SDS011;52214;50.940;13.996;2022-11-03T14:39:39;7.85;;;3.45;;
65572;SDS011;52214;50.940;13.996;2022-11-03T14:42:05;7.00;;;3.40;;
65572;SDS011;52214;50.940;13.996;2022-11-03T14:44:39;7.93;;;3.10;;
65572;SDS011;52214;50.940;13.996;2022-11-03T14:47:06;7.20;;;3.13;;
65572;SDS011;52214;50.940;13.996;2022-11-03T14:49:34;9.60;;;3.63;;
65572;SDS011;52214;50.940;13.996;2022-11-03T14:52:00;11.52;;;3.38;;
65572;SDS011;52214;50.940;13.996;2022-11-03T14:54:27;8.02;;;3.72;;
65572;SDS011;52214;50.940;13.996;2022-11-03T14:56:53;6.83;;;3.30;;
65572;SDS011;52214;50.940;13.996;2022-11-03T14:59:19;10.38;;;3.42;;
65572;SDS011;52214;50.940;13.996;2022-11-03T15:01:46;11.93;;;3.60;;
65572;SDS011;52214;50.940;13.996;2022-11-03T15:04:12;11.88;;;3.80;;
65572;SDS011;52214;50.940;13.996;2022-11-03T15:06:39;9.20;;;3.60;;
65572;SDS011;52214;50.940;13.996;2022-11-03T15:09:05;7.45;;;3.50;;
65572;SDS011;52214;50.940;13.996;2022-11-03T15:11:32;10.05;;;3.65;;
65572;SDS011;52214;50.940;13.996;2022-11-03T15:13:58;10.25;;;3.80;;
65572;SDS011;52214;50.940;13.996;2022-11-03T15:16:24;8.45;;;3.80;;
65572;SDS011;52214;50.940;13.996;2022-11-03T15:18:50;8.87;;;3.20;;
65572;SDS011;52214;50.940;13.996;2022-11-03T15:21:16;10.80;;;3.85;;
65572;SDS011;52214;50.940;13.996;2022-11-03T15:23:42;10.70;;;3.78;;
65572;SDS011;52214;50.940;13.996;2022-11-03T15:26:08;9.23;;;3.50;;
65572;SDS011;52214;50.940;13.996;2022-11-03T15:28:33;8.23;;;3.45;;
65572;SDS011;52214;50.940;13.996;2022-11-03T15:30:59;7.60;;;3.20;;
65572;SDS011;52214;50.940;13.996;2022-11-03T15:33:25;8.98;;;3.75;;
65572;SDS011;52214;50.940;13.996;2022-11-03T15:35:51;7.97;;;3.30;;
65572;SDS011;52214;50.940;13.996;2022-11-03T15:38:17;8.83;;;3.43;;
65572;SDS011;52214;50.940;13.996;2022-11-03T15:40:43;8.98;;;3.80;;
65572;SDS011;52214;50.940;13.996;2022-11-03T15:43:10;7.97;;;3.83;;
65572;SDS011;52214;50.940;13.996;2022-11-03T15:45:36;10.95;;;3.92;;